Pflugerville, Texas
Current Conditions -  °F | °C
As of 3:35 PM on Friday 19 Dec 2014 (Local Time) from KEDC Reporting Station
Overcast Overcast  
Wind Chill: 52°   Ceiling: 1300
Heat Index: 52°   Visibility: 10mi
Dew Point: 48°   Wind: 10mph
Humidity: 88%   Direction: 10°N
Pressure: 30.11"   Gusts: NA
Location:  30.44°N, 97.62°W
Report Text: KEDC 192135Z AUTO 01009KT 10SM OVC013 11/09 A3011 RMK AO2
Loading
Personal Weather Stations






























Interactive Weather Map New forecast layout! Learn more

10-Day Weather Forecast

Advertisements
Track Severe Weather on mobile